createdAt,value
2019-05-18T00:00:55.467Z,79.20
2019-05-18T00:03:24.252Z,79.30
2019-05-18T00:05:53.009Z,79.20
2019-05-18T00:08:21.826Z,79.20
2019-05-18T00:10:50.614Z,79.00
2019-05-18T00:13:19.362Z,79.10
2019-05-18T00:15:48.123Z,79.00
2019-05-18T00:18:16.870Z,79.10
2019-05-18T00:20:45.621Z,79.20
2019-05-18T00:23:14.414Z,79.10
2019-05-18T00:25:44.177Z,78.90
2019-05-18T00:28:12.916Z,79.00
2019-05-18T00:30:41.655Z,79.70
2019-05-18T00:33:10.399Z,78.90
2019-05-18T00:35:39.174Z,79.00
2019-05-18T00:38:07.974Z,78.80
2019-05-18T00:40:36.747Z,78.70
2019-05-18T00:43:05.561Z,78.70
2019-05-18T00:45:34.332Z,78.60
2019-05-18T00:48:03.082Z,78.40
2019-05-18T00:50:31.822Z,78.30
2019-05-18T00:53:00.680Z,78.20
2019-05-18T00:55:29.928Z,77.90
2019-05-18T00:57:58.659Z,77.90
2019-05-18T01:00:27.397Z,77.70
2019-05-18T01:02:56.183Z,77.50
2019-05-18T01:05:24.917Z,77.50
2019-05-18T01:07:53.679Z,77.70
2019-05-18T01:10:22.586Z,77.60
2019-05-18T01:12:51.349Z,77.70
2019-05-18T01:15:20.081Z,77.60
2019-05-18T01:17:56.830Z,77.60
2019-05-18T01:20:19.487Z,77.60
2019-05-18T01:22:48.325Z,77.60
2019-05-18T01:25:17.202Z,77.60
2019-05-18T01:27:46.903Z,77.50
2019-05-18T01:30:15.770Z,77.60
2019-05-18T01:32:44.586Z,77.60
2019-05-18T01:35:13.349Z,77.60
2019-05-18T01:37:42.096Z,77.60
2019-05-18T01:40:11.877Z,77.60
2019-05-18T01:42:40.638Z,77.70
2019-05-18T01:45:16.868Z,77.60
2019-05-18T01:47:40.182Z,77.70
2019-05-18T01:50:09.243Z,77.90
2019-05-18T01:52:38.169Z,78.00
2019-05-18T01:55:07.679Z,78.20
2019-05-18T01:57:36.494Z,78.20
2019-05-18T02:00:08.823Z,78.20
2019-05-18T02:02:37.562Z,78.10
2019-05-18T02:05:06.910Z,78.10
2019-05-18T02:07:35.664Z,78.20
2019-05-18T02:10:05.727Z,78.00
2019-05-18T02:12:34.544Z,77.90
2019-05-18T02:15:03.870Z,77.70
2019-05-18T02:17:32.671Z,77.60
2019-05-18T02:20:01.423Z,77.50
2019-05-18T02:22:30.201Z,77.30
2019-05-18T02:24:58.954Z,77.30
2019-05-18T02:27:27.683Z,77.30
2019-05-18T02:29:58.046Z,77.20
2019-05-18T02:32:26.867Z,77.20
2019-05-18T02:34:55.688Z,77.20
2019-05-18T02:37:24.434Z,77.10
2019-05-18T02:39:54.865Z,77.10
2019-05-18T02:42:23.660Z,76.70
2019-05-18T02:44:52.471Z,76.60
2019-05-18T02:47:21.287Z,76.50
2019-05-18T02:49:50.043Z,77.40
2019-05-18T02:52:18.858Z,76.40
2019-05-18T02:54:47.716Z,76.20
2019-05-18T02:57:16.472Z,75.90
2019-05-18T02:59:45.222Z,76.10
2019-05-18T03:02:13.959Z,75.80
2019-05-18T03:04:42.761Z,75.90
2019-05-18T03:07:11.626Z,75.80
2019-05-18T03:09:40.339Z,76.80
2019-05-18T03:12:09.192Z,75.80
2019-05-18T03:14:37.950Z,75.90
2019-05-18T03:17:06.704Z,75.60
2019-05-18T03:19:35.460Z,75.60
2019-05-18T03:22:04.352Z,75.60
2019-05-18T03:24:33.082Z,75.80
2019-05-18T03:27:01.921Z,75.80
2019-05-18T03:29:30.633Z,75.80
2019-05-18T03:32:00.945Z,75.70
2019-05-18T03:34:30.177Z,75.60
2019-05-18T03:36:58.912Z,75.70
2019-05-18T03:39:27.674Z,75.70
2019-05-18T03:41:56.418Z,75.70
2019-05-18T03:44:25.169Z,75.70
2019-05-18T03:46:53.903Z,75.80
2019-05-18T03:49:27.087Z,75.80
2019-05-18T03:51:53.118Z,75.90
2019-05-18T03:54:21.864Z,76.20
2019-05-18T03:56:51.487Z,76.30
2019-05-18T03:59:20.251Z,76.30
2019-05-18T04:01:49.001Z,76.50
2019-05-18T04:04:18.597Z,76.70
2019-05-18T04:06:47.447Z,76.80
2019-05-18T04:09:16.197Z,77.20
2019-05-18T04:11:45.058Z,77.10
2019-05-18T04:14:13.776Z,77.90
2019-05-18T04:16:42.536Z,77.20
2019-05-18T04:19:11.282Z,78.00
2019-05-18T04:21:40.038Z,77.20
2019-05-18T04:24:08.833Z,77.50
2019-05-18T04:26:37.963Z,77.40
2019-05-18T04:29:06.782Z,77.40
2019-05-18T04:31:35.488Z,78.30
2019-05-18T04:34:05.075Z,77.10
2019-05-18T04:36:33.846Z,77.20
2019-05-18T04:39:02.653Z,77.00
2019-05-18T04:41:31.410Z,76.60
2019-05-18T04:44:00.159Z,76.40
2019-05-18T04:46:29.034Z,76.40
2019-05-18T04:48:57.818Z,76.30
2019-05-18T04:51:26.575Z,76.10
2019-05-18T04:53:55.367Z,76.10
2019-05-18T04:56:24.163Z,76.00
2019-05-18T04:58:52.897Z,75.70
2019-05-18T05:01:21.788Z,75.70
2019-05-18T05:03:50.480Z,75.20
2019-05-18T05:06:19.217Z,75.20
2019-05-18T05:08:47.998Z,74.90
2019-05-18T05:11:16.748Z,75.00
2019-05-18T05:13:45.558Z,75.10
2019-05-18T05:16:14.343Z,74.50
2019-05-18T05:18:43.147Z,74.90
2019-05-18T05:21:11.896Z,74.90
2019-05-18T05:23:40.734Z,74.90
2019-05-18T05:26:09.570Z,75.00
2019-05-18T05:28:38.404Z,74.80
2019-05-18T05:31:07.174Z,75.00
2019-05-18T05:33:35.910Z,75.00
2019-05-18T05:36:05.678Z,75.00
2019-05-18T05:38:34.431Z,74.80
2019-05-18T05:41:03.267Z,74.70
2019-05-18T05:43:32.016Z,74.50
2019-05-18T05:46:00.752Z,74.80
2019-05-18T05:48:29.601Z,75.00
2019-05-18T05:50:58.369Z,75.00
2019-05-18T05:53:27.154Z,75.10
2019-05-18T05:55:55.939Z,75.20
2019-05-18T05:58:24.661Z,75.10
2019-05-18T06:00:53.381Z,74.80
2019-05-18T06:03:22.457Z,75.30
2019-05-18T06:05:51.204Z,75.30
2019-05-18T06:08:19.937Z,75.30
2019-05-18T06:10:48.807Z,75.30
2019-05-18T06:13:17.541Z,75.30
2019-05-18T06:15:46.291Z,75.10
2019-05-18T06:18:15.066Z,75.20
2019-05-18T06:20:51.542Z,75.20
2019-05-18T06:23:14.204Z,75.20
2019-05-18T06:25:43.095Z,74.90
2019-05-18T06:28:11.919Z,75.30
2019-05-18T06:30:40.649Z,75.30
2019-05-18T06:33:09.416Z,75.40
2019-05-18T06:35:38.190Z,75.30
2019-05-18T06:38:07.931Z,75.60
2019-05-18T06:40:36.678Z,75.90
2019-05-18T06:43:05.501Z,75.90
2019-05-18T06:45:34.232Z,76.50
2019-05-18T06:48:03.328Z,76.10
2019-05-18T06:50:32.528Z,76.00
2019-05-18T06:53:01.302Z,76.00
2019-05-18T06:55:30.050Z,75.90
2019-05-18T06:58:00.216Z,75.70
2019-05-18T07:00:29.043Z,75.70
2019-05-18T07:02:57.849Z,75.40
2019-05-18T07:05:26.602Z,75.40
2019-05-18T07:07:55.433Z,75.10
2019-05-18T07:10:24.158Z,75.20
2019-05-18T07:12:52.968Z,74.50
2019-05-18T07:15:21.887Z,74.50
2019-05-18T07:17:50.630Z,74.50
2019-05-18T07:20:19.557Z,74.10
2019-05-18T07:22:48.298Z,73.80
2019-05-18T07:25:17.274Z,73.60
2019-05-18T07:27:46.169Z,73.40
2019-05-18T07:30:15.454Z,72.70
2019-05-18T07:32:44.181Z,72.10
2019-05-18T07:35:14.032Z,70.70
2019-05-18T07:37:42.771Z,69.60
2019-05-18T07:40:12.590Z,70.00
2019-05-18T07:42:41.385Z,69.70
2019-05-18T07:45:10.342Z,69.00
2019-05-18T07:47:39.165Z,68.80
2019-05-18T07:50:08.139Z,68.20
2019-05-18T07:52:36.899Z,67.60
2019-05-18T07:55:07.330Z,66.70
2019-05-18T07:57:36.288Z,66.80
2019-05-18T08:00:06.040Z,66.60
2019-05-18T08:02:34.786Z,65.80
2019-05-18T08:05:04.748Z,66.10
2019-05-18T08:07:33.487Z,64.90
2019-05-18T08:10:02.228Z,65.40
2019-05-18T08:12:31.034Z,65.00
2019-05-18T08:14:59.904Z,65.50
2019-05-18T08:17:28.731Z,65.90
2019-05-18T08:19:57.582Z,65.00
2019-05-18T08:22:26.328Z,64.70
2019-05-18T08:24:55.074Z,64.00
2019-05-18T08:27:23.880Z,64.80
2019-05-18T08:29:52.619Z,64.80
2019-05-18T08:32:21.431Z,65.10
2019-05-18T08:34:50.227Z,63.60
2019-05-18T08:37:18.967Z,64.00
2019-05-18T08:39:47.701Z,64.10
2019-05-18T08:42:17.459Z,63.10
2019-05-18T08:44:46.189Z,63.30
2019-05-18T08:47:15.006Z,63.80
2019-05-18T08:50:03.123Z,62.80
2019-05-18T08:52:31.867Z,63.10
2019-05-18T08:55:00.607Z,62.20
2019-05-18T08:57:29.464Z,62.40
2019-05-18T08:59:58.221Z,62.80
2019-05-18T09:02:26.945Z,62.20
2019-05-18T09:04:55.710Z,62.10
2019-05-18T09:07:24.469Z,61.80
2019-05-18T09:09:53.247Z,61.60
2019-05-18T09:12:22.054Z,61.70
2019-05-18T09:14:50.773Z,61.80
2019-05-18T09:17:19.520Z,61.90
2019-05-18T09:19:48.384Z,61.40
2019-05-18T09:22:23.274Z,61.40
2019-05-18T09:24:47.586Z,61.30
2019-05-18T09:27:16.362Z,61.00
2019-05-18T09:29:45.098Z,60.70
2019-05-18T09:32:13.863Z,60.40
2019-05-18T09:34:42.598Z,60.00
2019-05-18T09:37:11.359Z,60.10
2019-05-18T09:39:40.113Z,59.70
2019-05-18T09:42:08.909Z,59.10
2019-05-18T09:44:38.617Z,58.90
2019-05-18T09:47:07.358Z,59.20
2019-05-18T09:49:36.149Z,58.90
2019-05-18T09:52:04.885Z,58.90
2019-05-18T09:54:33.649Z,58.90
2019-05-18T09:57:02.437Z,58.60
2019-05-18T09:59:31.183Z,57.50
2019-05-18T10:01:59.929Z,57.10
2019-05-18T10:04:28.808Z,57.30
2019-05-18T10:06:57.541Z,57.50
2019-05-18T10:09:26.365Z,57.70
2019-05-18T10:11:55.213Z,57.80
2019-05-18T10:14:23.942Z,57.30
2019-05-18T10:16:52.806Z,57.10
2019-05-18T10:19:21.609Z,57.00
2019-05-18T10:21:50.347Z,56.60
2019-05-18T10:24:19.095Z,57.10
2019-05-18T10:26:47.870Z,55.80
2019-05-18T10:29:16.689Z,56.50
2019-05-18T10:31:45.448Z,56.30
2019-05-18T10:34:14.241Z,56.20
2019-05-18T10:36:43.027Z,55.70
2019-05-18T10:39:11.762Z,55.90
2019-05-18T10:41:40.525Z,55.00
2019-05-18T10:44:09.351Z,54.40
2019-05-18T10:46:39.002Z,54.40
2019-05-18T10:49:07.832Z,54.40
2019-05-18T10:51:36.633Z,54.40
2019-05-18T10:54:05.447Z,54.20
2019-05-18T10:56:34.230Z,54.10
2019-05-18T10:59:03.028Z,53.90
2019-05-18T11:01:31.854Z,54.00
2019-05-18T11:04:00.682Z,53.10
2019-05-18T11:06:29.394Z,53.40
2019-05-18T11:08:58.205Z,53.40
2019-05-18T11:11:27.018Z,53.90
2019-05-18T11:13:55.828Z,54.20
2019-05-18T11:16:24.560Z,53.50
2019-05-18T11:18:53.327Z,53.00
2019-05-18T11:21:22.082Z,53.10
2019-05-18T11:23:50.844Z,53.10
2019-05-18T11:26:19.706Z,52.60
2019-05-18T11:28:48.450Z,52.40
2019-05-18T11:31:17.184Z,52.30
2019-05-18T11:33:45.959Z,52.60
2019-05-18T11:36:14.781Z,52.10
2019-05-18T11:38:43.530Z,52.20
2019-05-18T11:41:12.310Z,51.70
2019-05-18T11:43:41.067Z,51.40
2019-05-18T11:46:09.874Z,52.10
2019-05-18T11:48:39.557Z,51.20
2019-05-18T11:51:08.692Z,51.50
2019-05-18T11:53:37.616Z,51.30
2019-05-18T11:56:06.405Z,51.30
2019-05-18T11:58:35.330Z,50.20
2019-05-18T12:01:04.151Z,49.50
2019-05-18T12:03:32.932Z,49.70
2019-05-18T12:06:01.677Z,50.30
2019-05-18T12:08:30.421Z,50.20
2019-05-18T12:10:59.216Z,50.50
2019-05-18T12:13:28.090Z,50.60
2019-05-18T12:15:56.863Z,50.70
2019-05-18T12:18:25.723Z,50.40
2019-05-18T12:20:54.465Z,50.70
2019-05-18T12:23:23.202Z,51.10
2019-05-18T12:25:51.989Z,50.80
2019-05-18T12:28:20.733Z,50.90
2019-05-18T12:30:49.539Z,51.40
2019-05-18T12:33:18.328Z,50.60
2019-05-18T12:35:47.065Z,49.60
2019-05-18T12:38:15.850Z,49.00
2019-05-18T12:40:44.698Z,48.80
2019-05-18T12:43:13.520Z,50.00
2019-05-18T12:45:42.262Z,48.80
2019-05-18T12:48:11.051Z,47.60
2019-05-18T12:50:40.040Z,47.00
2019-05-18T12:53:08.794Z,45.80
2019-05-18T12:55:37.604Z,43.10
2019-05-18T12:58:06.351Z,44.80
2019-05-18T13:00:35.141Z,44.20
2019-05-18T13:03:03.976Z,44.20
2019-05-18T13:05:32.716Z,44.40
2019-05-18T13:08:01.531Z,44.30
2019-05-18T13:10:30.341Z,44.80
2019-05-18T13:12:59.078Z,44.90
2019-05-18T13:15:27.941Z,44.00
2019-05-18T13:17:56.677Z,43.50
2019-05-18T13:20:25.445Z,43.40
2019-05-18T13:22:54.241Z,42.50
2019-05-18T13:25:23.048Z,41.80
2019-05-18T13:27:51.783Z,40.20
2019-05-18T13:30:22.190Z,39.20
2019-05-18T13:32:51.001Z,37.80
2019-05-18T13:35:19.857Z,36.30
2019-05-18T13:37:48.652Z,36.20
2019-05-18T13:40:17.485Z,35.10
2019-05-18T13:42:46.228Z,35.40
2019-05-18T13:45:15.514Z,34.60
2019-05-18T13:47:44.249Z,36.00
2019-05-18T13:50:14.583Z,36.50
2019-05-18T13:52:44.363Z,36.50
2019-05-18T13:55:13.484Z,35.80
2019-05-18T13:57:42.239Z,36.80
2019-05-18T14:00:12.439Z,36.40
2019-05-18T14:02:41.352Z,36.90
2019-05-18T14:05:10.459Z,36.80
2019-05-18T14:07:39.242Z,37.40
2019-05-18T14:10:12.450Z,37.80
2019-05-18T14:12:40.868Z,37.70
2019-05-18T14:15:10.248Z,38.10
2019-05-18T14:17:38.996Z,37.80
2019-05-18T14:20:07.961Z,38.30
2019-05-18T14:22:36.743Z,36.60
2019-05-18T14:25:18.588Z,35.90
2019-05-18T14:27:39.652Z,34.20
2019-05-18T14:30:09.418Z,34.10
2019-05-18T14:32:38.292Z,33.60
2019-05-18T14:35:08.305Z,33.10
2019-05-18T14:37:37.094Z,32.50
2019-05-18T14:40:09.894Z,30.70
2019-05-18T14:42:38.617Z,30.10
2019-05-18T14:45:10.731Z,30.30
2019-05-18T14:47:39.566Z,30.00
2019-05-18T14:50:08.589Z,29.50
2019-05-18T14:52:37.415Z,29.40
2019-05-18T14:55:07.255Z,30.30
2019-05-18T14:57:36.070Z,30.60
2019-05-18T15:00:06.337Z,31.30
2019-05-18T15:02:35.104Z,33.00
2019-05-18T15:05:05.109Z,33.70
2019-05-18T15:07:33.963Z,34.50
2019-05-18T15:10:02.771Z,35.60
2019-05-18T15:12:31.530Z,36.60
2019-05-18T15:15:00.300Z,37.50
2019-05-18T15:17:29.121Z,38.30
2019-05-18T15:19:57.853Z,39.40
2019-05-18T15:22:26.699Z,39.80
2019-05-18T15:24:55.462Z,40.70
2019-05-18T15:27:24.200Z,40.90
2019-05-18T15:29:52.984Z,41.50
2019-05-18T15:32:21.792Z,42.30
2019-05-18T15:34:50.539Z,42.70
2019-05-18T15:37:19.326Z,43.10
2019-05-18T15:39:48.137Z,43.40
2019-05-18T15:42:16.884Z,43.40
2019-05-18T15:44:45.770Z,43.70
2019-05-18T15:47:14.497Z,43.90
2019-05-18T15:49:43.247Z,43.80
2019-05-18T15:52:12.060Z,44.20
2019-05-18T15:54:40.742Z,44.70
2019-05-18T15:57:10.407Z,44.90
2019-05-18T15:59:39.182Z,45.50
2019-05-18T16:02:08.000Z,46.30
2019-05-18T16:04:36.789Z,46.70
2019-05-18T16:07:05.661Z,46.90
2019-05-18T16:09:34.411Z,47.40
2019-05-18T16:12:03.154Z,47.80
2019-05-18T16:14:32.037Z,48.20
2019-05-18T16:17:00.768Z,48.60
2019-05-18T16:19:29.572Z,48.90
2019-05-18T16:21:58.431Z,49.20
2019-05-18T16:24:27.210Z,49.70
2019-05-18T16:26:55.939Z,50.00
2019-05-18T16:29:24.730Z,49.90
2019-05-18T16:31:53.488Z,50.60
2019-05-18T16:34:22.241Z,50.60
2019-05-18T16:36:51.014Z,50.60
2019-05-18T16:39:19.768Z,51.00
2019-05-18T16:41:48.567Z,50.90
2019-05-18T16:44:17.365Z,51.10
2019-05-18T16:46:46.089Z,51.50
2019-05-18T16:49:14.845Z,51.70
2019-05-18T16:51:43.656Z,52.10
2019-05-18T16:54:12.400Z,52.30
2019-05-18T16:56:41.214Z,53.20
2019-05-18T16:59:10.903Z,53.00
2019-05-18T17:01:39.724Z,53.00
2019-05-18T17:04:08.533Z,53.20
2019-05-18T17:06:37.411Z,53.50
2019-05-18T17:09:06.261Z,53.70
2019-05-18T17:11:35.045Z,53.90
2019-05-18T17:14:04.057Z,54.30
2019-05-18T17:16:32.795Z,54.30
2019-05-18T17:19:01.601Z,54.50
2019-05-18T17:21:30.381Z,54.90
2019-05-18T17:24:00.669Z,55.30
2019-05-18T17:26:29.442Z,55.20
2019-05-18T17:29:00.149Z,55.30
2019-05-18T17:31:28.580Z,55.70
2019-05-18T17:33:57.334Z,55.90
2019-05-18T17:36:26.076Z,56.10
2019-05-18T17:38:54.858Z,56.50
2019-05-18T17:41:23.593Z,57.00
2019-05-18T17:43:52.396Z,57.30
2019-05-18T17:46:21.132Z,57.30
2019-05-18T17:48:49.950Z,57.50
2019-05-18T17:51:18.801Z,57.60
2019-05-18T17:53:47.577Z,57.90
2019-05-18T17:56:16.320Z,58.00
2019-05-18T17:58:45.133Z,58.60
2019-05-18T18:01:14.840Z,58.10
2019-05-18T18:03:43.572Z,58.30
2019-05-18T18:06:12.318Z,58.40
2019-05-18T18:08:41.146Z,58.70
2019-05-18T18:11:11.899Z,58.80
2019-05-18T18:13:40.295Z,58.90
2019-05-18T18:16:09.179Z,59.10
2019-05-18T18:18:38.526Z,59.40
2019-05-18T18:21:07.284Z,59.60
2019-05-18T18:23:36.085Z,59.80
2019-05-18T18:26:04.845Z,60.00
2019-05-18T18:28:33.685Z,60.20
2019-05-18T18:31:02.511Z,60.50
2019-05-18T18:33:34.198Z,60.80
2019-05-18T18:36:03.078Z,61.20
2019-05-18T18:38:31.835Z,61.60
2019-05-18T18:41:00.595Z,61.60
2019-05-18T18:43:29.343Z,61.90
2019-05-18T18:45:58.221Z,62.10
2019-05-18T18:48:27.027Z,62.40
2019-05-18T18:50:55.812Z,63.10
2019-05-18T18:53:24.565Z,63.30
2019-05-18T18:55:53.309Z,63.20
2019-05-18T18:58:22.146Z,63.20
2019-05-18T19:00:50.860Z,63.40
2019-05-18T19:03:20.485Z,63.70
2019-05-18T19:05:49.249Z,63.80
2019-05-18T19:08:17.981Z,64.10
2019-05-18T19:10:46.786Z,64.10
2019-05-18T19:13:15.551Z,64.40
2019-05-18T19:15:44.355Z,64.40
2019-05-18T19:18:13.098Z,64.70
2019-05-18T19:20:41.850Z,64.70
2019-05-18T19:23:10.613Z,64.80
2019-05-18T19:25:39.481Z,65.90
2019-05-18T19:28:08.226Z,65.60
2019-05-18T19:30:36.987Z,66.20
2019-05-18T19:33:05.733Z,66.70
2019-05-18T19:35:34.468Z,66.90
2019-05-18T19:38:03.279Z,67.30
2019-05-18T19:40:32.030Z,67.50
2019-05-18T19:43:00.784Z,67.70
2019-05-18T19:45:29.544Z,67.70
2019-05-18T19:48:00.181Z,68.00
2019-05-18T19:50:28.958Z,68.00
2019-05-18T19:52:57.765Z,69.10
2019-05-18T19:55:26.510Z,68.30
2019-05-18T19:58:08.171Z,68.50
2019-05-18T20:00:25.690Z,68.50
2019-05-18T20:02:54.426Z,68.60
2019-05-18T20:05:24.090Z,68.90
2019-05-18T20:07:52.815Z,69.00
2019-05-18T20:10:21.687Z,69.40
2019-05-18T20:12:50.439Z,69.30
2019-05-18T20:15:19.263Z,69.60
2019-05-18T20:17:48.027Z,69.90
2019-05-18T20:20:17.129Z,70.70
2019-05-18T20:22:45.920Z,70.00
2019-05-18T20:25:14.954Z,70.20
2019-05-18T20:27:43.725Z,70.30
2019-05-18T20:30:12.652Z,70.60
2019-05-18T20:32:41.432Z,70.80
2019-05-18T20:35:30.966Z,70.90
2019-05-18T20:37:59.738Z,71.10
2019-05-18T20:40:28.470Z,71.20
2019-05-18T20:42:57.215Z,71.60
2019-05-18T20:45:26.048Z,71.50
2019-05-18T20:47:54.817Z,71.60
2019-05-18T20:50:23.647Z,71.80
2019-05-18T20:52:52.465Z,72.00
2019-05-18T20:55:21.241Z,72.40
2019-05-18T20:57:50.079Z,72.40
2019-05-18T21:00:19.250Z,72.40
2019-05-18T21:02:48.024Z,72.30
2019-05-18T21:05:17.545Z,72.40
2019-05-18T21:07:47.181Z,72.60
2019-05-18T21:10:16.032Z,72.70
2019-05-18T21:12:44.768Z,72.80
2019-05-18T21:15:13.873Z,72.90
2019-05-18T21:17:42.716Z,73.00
2019-05-18T21:20:11.776Z,73.20
2019-05-18T21:22:40.511Z,73.00
2019-05-18T21:25:09.455Z,73.00
2019-05-18T21:27:38.282Z,72.80
2019-05-18T21:30:07.394Z,72.90
2019-05-18T21:32:36.138Z,72.70
2019-05-18T21:35:07.219Z,72.60
2019-05-18T21:37:35.964Z,72.60
2019-05-18T21:40:05.890Z,72.60
2019-05-18T21:42:34.663Z,72.60
2019-05-18T21:45:03.874Z,72.60
2019-05-18T21:47:32.697Z,72.60
2019-05-18T21:50:01.538Z,72.30
2019-05-18T21:52:30.483Z,72.20
2019-05-18T21:54:59.239Z,72.20
2019-05-18T21:57:28.066Z,72.00
2019-05-18T21:59:56.813Z,71.90
2019-05-18T22:02:25.560Z,71.70
2019-05-18T22:04:54.316Z,71.70
2019-05-18T22:07:23.073Z,71.80
2019-05-18T22:09:53.766Z,71.70
2019-05-18T22:12:22.915Z,71.60
2019-05-18T22:14:51.605Z,71.60
2019-05-18T22:17:20.376Z,71.70
2019-05-18T22:19:49.243Z,71.70
2019-05-18T22:22:18.072Z,71.70
2019-05-18T22:24:46.830Z,71.80
2019-05-18T22:27:15.579Z,71.90
2019-05-18T22:29:44.315Z,71.90
2019-05-18T22:32:13.186Z,72.10
2019-05-18T22:34:41.955Z,72.00
2019-05-18T22:37:10.704Z,72.00
2019-05-18T22:39:39.437Z,72.00
2019-05-18T22:42:08.198Z,71.90
2019-05-18T22:44:37.023Z,72.00
2019-05-18T22:47:05.768Z,72.00
2019-05-18T22:49:34.538Z,72.00
2019-05-18T22:52:03.284Z,72.20
2019-05-18T22:54:32.096Z,72.30
2019-05-18T22:57:00.844Z,72.60
2019-05-18T22:59:29.525Z,72.60
2019-05-18T23:01:58.340Z,72.60
2019-05-18T23:04:27.183Z,72.60
2019-05-18T23:06:55.912Z,72.60
2019-05-18T23:09:24.670Z,72.60
2019-05-18T23:11:54.304Z,72.60
2019-05-18T23:14:23.113Z,72.70
2019-05-18T23:16:51.930Z,72.80
2019-05-18T23:19:20.682Z,73.90
2019-05-18T23:21:49.495Z,73.10
2019-05-18T23:24:18.238Z,73.90
2019-05-18T23:26:46.991Z,73.70
2019-05-18T23:29:15.796Z,73.90
2019-05-18T23:31:44.538Z,74.60
2019-05-18T23:34:13.268Z,74.30
2019-05-18T23:36:42.101Z,74.30
2019-05-18T23:39:10.844Z,74.20
2019-05-18T23:41:39.670Z,74.10
2019-05-18T23:44:08.419Z,74.40
2019-05-18T23:46:37.252Z,74.40
2019-05-18T23:49:10.806Z,74.40
2019-05-18T23:51:36.415Z,74.20
2019-05-18T23:54:05.238Z,74.10
2019-05-18T23:56:34.054Z,74.10
2019-05-18T23:59:03.505Z,74.30
